sensor_id;sensor_type;location;lat;lon;timestamp;pressure;altitude;pressure_sealevel;temperature;humidity
3178;BME280;38141;42.666;23.344;2023-02-28T00:01:14;94987.31;;;6.83;100.00
3178;BME280;38141;42.666;23.344;2023-02-28T00:03:43;95044.13;;;7.16;100.00
3178;BME280;38141;42.666;23.344;2023-02-28T00:06:10;95060.31;;;7.54;100.00
3178;BME280;38141;42.666;23.344;2023-02-28T00:08:37;95051.59;;;7.42;100.00
3178;BME280;38141;42.666;23.344;2023-02-28T00:11:06;95104.25;;;7.97;100.00
3178;BME280;38141;42.666;23.344;2023-02-28T00:13:35;95034.38;;;7.27;100.00
3178;BME280;38141;42.666;23.344;2023-02-28T00:16:04;95028.09;;;7.39;100.00
3178;BME280;38141;42.666;23.344;2023-02-28T00:18:32;95103.41;;;7.74;100.00
3178;BME280;38141;42.666;23.344;2023-02-28T00:21:00;95111.34;;;7.86;100.00
3178;BME280;38141;42.666;23.344;2023-02-28T00:23:27;95121.63;;;7.80;100.00
3178;BME280;38141;42.666;23.344;2023-02-28T00:25:54;95134.38;;;7.83;100.00
3178;BME280;38141;42.666;23.344;2023-02-28T00:28:21;95122.22;;;7.89;100.00
3178;BME280;38141;42.666;23.344;2023-02-28T00:30:48;95111.72;;;7.84;100.00
3178;BME280;38141;42.666;23.344;2023-02-28T00:33:15;95118.22;;;7.83;100.00
3178;BME280;38141;42.666;23.344;2023-02-28T00:35:42;95114.81;;;8.05;100.00
3178;BME280;38141;42.666;23.344;2023-02-28T00:38:13;95139.56;;;8.11;100.00
3178;BME280;38141;42.666;23.344;2023-02-28T00:40:39;95129.91;;;7.91;100.00
3178;BME280;38141;42.666;23.344;2023-02-28T00:43:06;95075.34;;;7.55;100.00
3178;BME280;38141;42.666;23.344;2023-02-28T00:45:33;95064.44;;;7.48;100.00
3178;BME280;38141;42.666;23.344;2023-02-28T00:48:00;95065.22;;;7.49;100.00
3178;BME280;38141;42.666;23.344;2023-02-28T00:50:27;95106.19;;;7.58;100.00
3178;BME280;38141;42.666;23.344;2023-02-28T00:52:54;95121.56;;;7.96;100.00
3178;BME280;38141;42.666;23.344;2023-02-28T00:55:22;95115.03;;;7.97;100.00
3178;BME280;38141;42.666;23.344;2023-02-28T00:57:48;95117.16;;;7.88;100.00
3178;BME280;38141;42.666;23.344;2023-02-28T01:00:16;95131.28;;;8.00;100.00
3178;BME280;38141;42.666;23.344;2023-02-28T01:02:42;95123.75;;;7.71;100.00
3178;BME280;38141;42.666;23.344;2023-02-28T01:05:09;95135.78;;;7.77;100.00
3178;BME280;38141;42.666;23.344;2023-02-28T01:07:36;95140.78;;;7.94;100.00
3178;BME280;38141;42.666;23.344;2023-02-28T01:10:04;95117.50;;;7.86;100.00
3178;BME280;38141;42.666;23.344;2023-02-28T01:12:32;95127.88;;;8.03;100.00
3178;BME280;38141;42.666;23.344;2023-02-28T01:14:59;95095.97;;;7.67;100.00
3178;BME280;38141;42.666;23.344;2023-02-28T01:17:26;95127.72;;;7.58;100.00
3178;BME280;38141;42.666;23.344;2023-02-28T01:19:53;95099.94;;;7.54;100.00
3178;BME280;38141;42.666;23.344;2023-02-28T01:22:23;95125.38;;;7.95;100.00
3178;BME280;38141;42.666;23.344;2023-02-28T01:24:50;95111.91;;;7.95;100.00
3178;BME280;38141;42.666;23.344;2023-02-28T01:27:17;95115.75;;;7.94;100.00
3178;BME280;38141;42.666;23.344;2023-02-28T01:29:45;95119.00;;;7.84;100.00
3178;BME280;38141;42.666;23.344;2023-02-28T01:32:12;95102.84;;;7.84;100.00
3178;BME280;38141;42.666;23.344;2023-02-28T01:34:39;95110.16;;;7.83;100.00
3178;BME280;38141;42.666;23.344;2023-02-28T01:37:05;95116.03;;;7.89;100.00
3178;BME280;38141;42.666;23.344;2023-02-28T01:39:32;95097.72;;;7.59;100.00
3178;BME280;38141;42.666;23.344;2023-02-28T01:41:59;95093.78;;;7.53;100.00
3178;BME280;38141;42.666;23.344;2023-02-28T01:45:03;95120.63;;;7.69;100.00
3178;BME280;38141;42.666;23.344;2023-02-28T01:47:33;95109.66;;;7.78;100.00
3178;BME280;38141;42.666;23.344;2023-02-28T01:50:03;95126.66;;;7.82;100.00
3178;BME280;38141;42.666;23.344;2023-02-28T01:52:30;95082.41;;;7.64;100.00
3178;BME280;38141;42.666;23.344;2023-02-28T01:55:01;95131.63;;;7.80;100.00
3178;BME280;38141;42.666;23.344;2023-02-28T01:57:32;95132.63;;;7.72;100.00
3178;BME280;38141;42.666;23.344;2023-02-28T02:00:07;95106.22;;;7.42;100.00
3178;BME280;38141;42.666;23.344;2023-02-28T02:02:36;95125.50;;;7.64;100.00
3178;BME280;38141;42.666;23.344;2023-02-28T02:05:06;95109.34;;;7.44;100.00
3178;BME280;38141;42.666;23.344;2023-02-28T02:07:36;95119.72;;;7.62;100.00
3178;BME280;38141;42.666;23.344;2023-02-28T02:10:10;95124.81;;;7.67;100.00
3178;BME280;38141;42.666;23.344;2023-02-28T02:13:00;95130.63;;;7.69;100.00
3178;BME280;38141;42.666;23.344;2023-02-28T02:15:34;95100.16;;;7.30;100.00
3178;BME280;38141;42.666;23.344;2023-02-28T02:18:06;95101.69;;;7.11;100.00
3178;BME280;38141;42.666;23.344;2023-02-28T02:24:13;95109.41;;;7.48;100.00
3178;BME280;38141;42.666;23.344;2023-02-28T02:27:23;95115.41;;;7.41;100.00
3178;BME280;38141;42.666;23.344;2023-02-28T02:33:25;95114.00;;;7.47;100.00
3178;BME280;38141;42.666;23.344;2023-02-28T02:35:58;95100.81;;;7.42;100.00
3178;BME280;38141;42.666;23.344;2023-02-28T02:38:32;95117.94;;;7.69;100.00
3178;BME280;38141;42.666;23.344;2023-02-28T02:41:05;95051.09;;;7.01;100.00
3178;BME280;38141;42.666;23.344;2023-02-28T02:43:38;95105.34;;;7.38;100.00
3178;BME280;38141;42.666;23.344;2023-02-28T02:46:10;95098.06;;;7.04;100.00
3178;BME280;38141;42.666;23.344;2023-02-28T02:48:41;95123.25;;;7.31;100.00
3178;BME280;38141;42.666;23.344;2023-02-28T02:51:14;95140.19;;;7.31;100.00
3178;BME280;38141;42.666;23.344;2023-02-28T02:53:47;95089.47;;;7.33;100.00
3178;BME280;38141;42.666;23.344;2023-02-28T02:56:19;95064.09;;;7.15;100.00
3178;BME280;38141;42.666;23.344;2023-02-28T02:58:49;95129.06;;;7.33;100.00
3178;BME280;38141;42.666;23.344;2023-02-28T03:01:20;95122.94;;;7.51;100.00
3178;BME280;38141;42.666;23.344;2023-02-28T03:03:56;95073.28;;;7.14;100.00
3178;BME280;38141;42.666;23.344;2023-02-28T03:06:25;95148.34;;;7.70;100.00
3178;BME280;38141;42.666;23.344;2023-02-28T03:08:52;95077.34;;;7.24;100.00
3178;BME280;38141;42.666;23.344;2023-02-28T03:11:19;95171.25;;;7.79;100.00
3178;BME280;38141;42.666;23.344;2023-02-28T03:13:54;95160.44;;;7.60;100.00
3178;BME280;38141;42.666;23.344;2023-02-28T03:16:51;95125.38;;;7.41;100.00
3178;BME280;38141;42.666;23.344;2023-02-28T03:19:36;95149.72;;;7.29;100.00
3178;BME280;38141;42.666;23.344;2023-02-28T03:22:14;95157.22;;;7.54;100.00
3178;BME280;38141;42.666;23.344;2023-02-28T03:24:49;95155.72;;;7.38;100.00
3178;BME280;38141;42.666;23.344;2023-02-28T03:27:24;95105.56;;;7.14;100.00
3178;BME280;38141;42.666;23.344;2023-02-28T03:29:58;95098.47;;;7.06;100.00
3178;BME280;38141;42.666;23.344;2023-02-28T03:32:32;95117.03;;;7.11;100.00
3178;BME280;38141;42.666;23.344;2023-02-28T03:35:03;95179.72;;;7.62;100.00
3178;BME280;38141;42.666;23.344;2023-02-28T03:37:35;95180.00;;;7.57;100.00
3178;BME280;38141;42.666;23.344;2023-02-28T03:40:07;95160.84;;;7.27;100.00
3178;BME280;38141;42.666;23.344;2023-02-28T03:42:41;95188.44;;;7.40;100.00
3178;BME280;38141;42.666;23.344;2023-02-28T03:45:12;95156.78;;;7.18;100.00
3178;BME280;38141;42.666;23.344;2023-02-28T03:47:42;95189.31;;;6.97;100.00
3178;BME280;38141;42.666;23.344;2023-02-28T03:50:16;95187.50;;;7.01;100.00
3178;BME280;38141;42.666;23.344;2023-02-28T03:52:48;95146.63;;;6.80;100.00
3178;BME280;38141;42.666;23.344;2023-02-28T03:55:16;95198.94;;;6.82;100.00
3178;BME280;38141;42.666;23.344;2023-02-28T03:57:51;95183.06;;;6.93;100.00
3178;BME280;38141;42.666;23.344;2023-02-28T04:00:31;95194.72;;;7.12;100.00
3178;BME280;38141;42.666;23.344;2023-02-28T04:02:58;95203.97;;;7.15;100.00
3178;BME280;38141;42.666;23.344;2023-02-28T04:05:25;95201.13;;;7.08;100.00
3178;BME280;38141;42.666;23.344;2023-02-28T04:07:54;95087.41;;;6.60;100.00
3178;BME280;38141;42.666;23.344;2023-02-28T04:10:30;95156.78;;;7.18;100.00
3178;BME280;38141;42.666;23.344;2023-02-28T04:12:57;95178.38;;;7.21;100.00
3178;BME280;38141;42.666;23.344;2023-02-28T04:15:24;95144.03;;;6.83;100.00
3178;BME280;38141;42.666;23.344;2023-02-28T04:17:53;95172.38;;;7.28;100.00
3178;BME280;38141;42.666;23.344;2023-02-28T04:20:19;95179.13;;;7.37;100.00
3178;BME280;38141;42.666;23.344;2023-02-28T04:22:46;95108.06;;;6.72;100.00
3178;BME280;38141;42.666;23.344;2023-02-28T04:25:15;95111.19;;;6.58;100.00
3178;BME280;38141;42.666;23.344;2023-02-28T04:27:42;95144.03;;;6.67;100.00
3178;BME280;38141;42.666;23.344;2023-02-28T04:30:11;95197.31;;;7.25;100.00
3178;BME280;38141;42.666;23.344;2023-02-28T04:32:38;95158.78;;;7.05;100.00
3178;BME280;38141;42.666;23.344;2023-02-28T04:35:05;95183.34;;;7.03;100.00
3178;BME280;38141;42.666;23.344;2023-02-28T04:37:32;95023.59;;;5.95;100.00
3178;BME280;38141;42.666;23.344;2023-02-28T04:40:00;95178.66;;;6.85;100.00
3178;BME280;38141;42.666;23.344;2023-02-28T04:42:29;95142.09;;;6.68;100.00
3178;BME280;38141;42.666;23.344;2023-02-28T04:45:01;95163.63;;;6.68;100.00
3178;BME280;38141;42.666;23.344;2023-02-28T04:47:27;95128.84;;;6.59;100.00
3178;BME280;38141;42.666;23.344;2023-02-28T04:49:54;95137.63;;;6.13;100.00
3178;BME280;38141;42.666;23.344;2023-02-28T04:52:21;95237.72;;;6.81;100.00
3178;BME280;38141;42.666;23.344;2023-02-28T04:54:48;95205.97;;;6.71;100.00
3178;BME280;38141;42.666;23.344;2023-02-28T04:57:15;95215.25;;;7.05;100.00
3178;BME280;38141;42.666;23.344;2023-02-28T04:59:43;95223.75;;;7.23;100.00
3178;BME280;38141;42.666;23.344;2023-02-28T05:02:10;95224.72;;;6.99;100.00
3178;BME280;38141;42.666;23.344;2023-02-28T05:04:37;95202.94;;;6.88;100.00
3178;BME280;38141;42.666;23.344;2023-02-28T05:07:04;95238.00;;;7.07;100.00
3178;BME280;38141;42.666;23.344;2023-02-28T05:09:31;95176.03;;;6.88;100.00
3178;BME280;38141;42.666;23.344;2023-02-28T05:11:59;95224.03;;;7.33;100.00
3178;BME280;38141;42.666;23.344;2023-02-28T05:14:26;95177.09;;;6.84;100.00
3178;BME280;38141;42.666;23.344;2023-02-28T05:16:55;95178.16;;;6.95;100.00
3178;BME280;38141;42.666;23.344;2023-02-28T05:19:23;95148.53;;;6.79;100.00
3178;BME280;38141;42.666;23.344;2023-02-28T05:21:53;95162.69;;;6.76;100.00
3178;BME280;38141;42.666;23.344;2023-02-28T05:24:21;95163.72;;;6.72;100.00
3178;BME280;38141;42.666;23.344;2023-02-28T05:26:50;95120.94;;;6.51;100.00
3178;BME280;38141;42.666;23.344;2023-02-28T05:29:18;95240.16;;;7.02;100.00
3178;BME280;38141;42.666;23.344;2023-02-28T05:31:44;95239.13;;;7.06;100.00
3178;BME280;38141;42.666;23.344;2023-02-28T05:34:13;95237.22;;;7.23;100.00
3178;BME280;38141;42.666;23.344;2023-02-28T05:36:41;95220.75;;;7.08;100.00
3178;BME280;38141;42.666;23.344;2023-02-28T05:39:08;95222.13;;;7.02;100.00
3178;BME280;38141;42.666;23.344;2023-02-28T05:41:39;95172.16;;;6.86;100.00
3178;BME280;38141;42.666;23.344;2023-02-28T05:44:06;95247.91;;;7.35;100.00
3178;BME280;38141;42.666;23.344;2023-02-28T05:46:33;95144.53;;;6.57;100.00
3178;BME280;38141;42.666;23.344;2023-02-28T05:48:59;95163.47;;;6.77;100.00
3178;BME280;38141;42.666;23.344;2023-02-28T05:51:28;95254.69;;;7.44;100.00
3178;BME280;38141;42.666;23.344;2023-02-28T05:53:58;95265.34;;;7.56;100.00
3178;BME280;38141;42.666;23.344;2023-02-28T05:56:25;95237.56;;;7.52;100.00
3178;BME280;38141;42.666;23.344;2023-02-28T05:58:52;95241.81;;;7.38;100.00
3178;BME280;38141;42.666;23.344;2023-02-28T06:01:22;95169.28;;;6.94;100.00
3178;BME280;38141;42.666;23.344;2023-02-28T06:03:50;95204.84;;;7.35;100.00
3178;BME280;38141;42.666;23.344;2023-02-28T06:06:17;95269.25;;;7.59;100.00
3178;BME280;38141;42.666;23.344;2023-02-28T06:08:45;95260.75;;;7.57;100.00
3178;BME280;38141;42.666;23.344;2023-02-28T06:11:12;95252.09;;;7.83;100.00
3178;BME280;38141;42.666;23.344;2023-02-28T06:13:40;95174.13;;;7.20;100.00
3178;BME280;38141;42.666;23.344;2023-02-28T06:16:08;95181.53;;;7.07;100.00
3178;BME280;38141;42.666;23.344;2023-02-28T06:18:36;95245.00;;;7.75;100.00
3178;BME280;38141;42.666;23.344;2023-02-28T06:21:03;95157.03;;;6.97;100.00
3178;BME280;38141;42.666;23.344;2023-02-28T06:23:30;95247.09;;;7.66;100.00
3178;BME280;38141;42.666;23.344;2023-02-28T06:25:58;95236.84;;;7.55;100.00
3178;BME280;38141;42.666;23.344;2023-02-28T06:28:25;95175.94;;;7.32;100.00
3178;BME280;38141;42.666;23.344;2023-02-28T06:30:52;95191.16;;;7.59;100.00
3178;BME280;38141;42.666;23.344;2023-02-28T06:33:19;95246.00;;;7.86;100.00
3178;BME280;38141;42.666;23.344;2023-02-28T06:35:47;95181.66;;;7.46;100.00
3178;BME280;38141;42.666;23.344;2023-02-28T06:38:15;95135.13;;;6.95;100.00
3178;BME280;38141;42.666;23.344;2023-02-28T06:40:43;95272.69;;;7.91;100.00
3178;BME280;38141;42.666;23.344;2023-02-28T06:43:11;95278.56;;;8.12;100.00
3178;BME280;38141;42.666;23.344;2023-02-28T06:45:41;95219.53;;;7.88;100.00
3178;BME280;38141;42.666;23.344;2023-02-28T06:48:08;95274.22;;;8.08;100.00
3178;BME280;38141;42.666;23.344;2023-02-28T06:50:36;95257.19;;;8.03;100.00
3178;BME280;38141;42.666;23.344;2023-02-28T06:53:03;95286.06;;;8.38;100.00
3178;BME280;38141;42.666;23.344;2023-02-28T06:55:29;95286.38;;;8.52;100.00
3178;BME280;38141;42.666;23.344;2023-02-28T06:57:57;95284.00;;;8.51;100.00
3178;BME280;38141;42.666;23.344;2023-02-28T07:00:25;95282.53;;;8.53;100.00
3178;BME280;38141;42.666;23.344;2023-02-28T07:02:52;95284.88;;;8.20;100.00
3178;BME280;38141;42.666;23.344;2023-02-28T07:05:20;95265.56;;;8.33;100.00
3178;BME280;38141;42.666;23.344;2023-02-28T07:07:47;95288.09;;;8.25;100.00
3178;BME280;38141;42.666;23.344;2023-02-28T07:10:14;95256.28;;;8.15;100.00
3178;BME280;38141;42.666;23.344;2023-02-28T07:12:42;95282.84;;;8.32;100.00
3178;BME280;38141;42.666;23.344;2023-02-28T07:15:10;95288.00;;;8.57;100.00
3178;BME280;38141;42.666;23.344;2023-02-28T07:17:38;95277.91;;;8.34;100.00
3178;BME280;38141;42.666;23.344;2023-02-28T07:20:08;95280.06;;;8.44;100.00
3178;BME280;38141;42.666;23.344;2023-02-28T07:22:35;95263.94;;;8.13;100.00
3178;BME280;38141;42.666;23.344;2023-02-28T07:25:02;95278.25;;;8.33;100.00
3178;BME280;38141;42.666;23.344;2023-02-28T07:27:29;95288.69;;;8.19;100.00
3178;BME280;38141;42.666;23.344;2023-02-28T07:29:56;95264.88;;;8.21;100.00
3178;BME280;38141;42.666;23.344;2023-02-28T07:32:23;95272.97;;;8.21;100.00
3178;BME280;38141;42.666;23.344;2023-02-28T07:34:51;95267.69;;;8.43;100.00
3178;BME280;38141;42.666;23.344;2023-02-28T07:37:18;95250.19;;;8.53;100.00
3178;BME280;38141;42.666;23.344;2023-02-28T07:39:45;95269.28;;;8.29;100.00
3178;BME280;38141;42.666;23.344;2023-02-28T07:42:12;95284.88;;;8.74;100.00
3178;BME280;38141;42.666;23.344;2023-02-28T07:44:39;95288.69;;;9.34;100.00
3178;BME280;38141;42.666;23.344;2023-02-28T07:47:07;95284.72;;;9.28;100.00
3178;BME280;38141;42.666;23.344;2023-02-28T07:49:34;95268.22;;;9.56;100.00
3178;BME280;38141;42.666;23.344;2023-02-28T07:52:03;95279.66;;;9.95;100.00
3178;BME280;38141;42.666;23.344;2023-02-28T07:54:30;95271.34;;;10.07;100.00
3178;BME280;38141;42.666;23.344;2023-02-28T07:56:57;95286.34;;;10.04;100.00
3178;BME280;38141;42.666;23.344;2023-02-28T07:59:24;95270.69;;;9.91;100.00
3178;BME280;38141;42.666;23.344;2023-02-28T08:01:51;95272.31;;;9.95;100.00
3178;BME280;38141;42.666;23.344;2023-02-28T08:04:18;95268.44;;;10.19;100.00
3178;BME280;38141;42.666;23.344;2023-02-28T08:06:46;95213.81;;;9.80;100.00
3178;BME280;38141;42.666;23.344;2023-02-28T08:09:14;95273.69;;;10.35;100.00
3178;BME280;38141;42.666;23.344;2023-02-28T08:11:41;95289.91;;;10.08;100.00
3178;BME280;38141;42.666;23.344;2023-02-28T08:14:07;95272.16;;;9.85;100.00
3178;BME280;38141;42.666;23.344;2023-02-28T08:16:34;95269.56;;;9.92;100.00
3178;BME280;38141;42.666;23.344;2023-02-28T08:19:01;95277.00;;;9.98;100.00
3178;BME280;38141;42.666;23.344;2023-02-28T08:21:27;95264.97;;;9.96;100.00
3178;BME280;38141;42.666;23.344;2023-02-28T08:23:54;95277.34;;;10.19;100.00
3178;BME280;38141;42.666;23.344;2023-02-28T08:26:26;95273.66;;;10.31;100.00
3178;BME280;38141;42.666;23.344;2023-02-28T08:28:53;95292.78;;;10.79;100.00
3178;BME280;38141;42.666;23.344;2023-02-28T08:31:22;95278.53;;;11.19;100.00
3178;BME280;38141;42.666;23.344;2023-02-28T08:34:06;95283.34;;;11.36;100.00
3178;BME280;38141;42.666;23.344;2023-02-28T08:36:33;95241.75;;;10.77;100.00
3178;BME280;38141;42.666;23.344;2023-02-28T08:39:06;95263.38;;;11.10;100.00
3178;BME280;38141;42.666;23.344;2023-02-28T08:41:35;95225.75;;;10.98;100.00
3178;BME280;38141;42.666;23.344;2023-02-28T08:44:02;95189.81;;;11.05;100.00
3178;BME280;38141;42.666;23.344;2023-02-28T08:46:29;95282.59;;;11.76;100.00
3178;BME280;38141;42.666;23.344;2023-02-28T08:48:57;95211.88;;;11.47;100.00
3178;BME280;38141;42.666;23.344;2023-02-28T08:51:26;95261.78;;;11.90;100.00
3178;BME280;38141;42.666;23.344;2023-02-28T08:53:53;95277.34;;;12.00;100.00
3178;BME280;38141;42.666;23.344;2023-02-28T08:56:21;95281.63;;;11.98;100.00
3178;BME280;38141;42.666;23.344;2023-02-28T08:58:50;95268.31;;;11.82;100.00
3178;BME280;38141;42.666;23.344;2023-02-28T09:01:18;95277.84;;;11.66;100.00
3178;BME280;38141;42.666;23.344;2023-02-28T09:03:47;95289.31;;;11.92;100.00
3178;BME280;38141;42.666;23.344;2023-02-28T09:06:16;95282.31;;;11.88;100.00
3178;BME280;38141;42.666;23.344;2023-02-28T09:08:43;95271.13;;;11.96;100.00
3178;BME280;38141;42.666;23.344;2023-02-28T09:11:10;95286.59;;;11.92;100.00
3178;BME280;38141;42.666;23.344;2023-02-28T09:13:37;95281.97;;;11.93;100.00
3178;BME280;38141;42.666;23.344;2023-02-28T09:16:10;95239.53;;;11.71;100.00
3178;BME280;38141;42.666;23.344;2023-02-28T09:18:38;95272.22;;;11.85;100.00
3178;BME280;38141;42.666;23.344;2023-02-28T09:21:06;95280.34;;;11.85;100.00
3178;BME280;38141;42.666;23.344;2023-02-28T09:23:35;95223.06;;;11.90;100.00
3178;BME280;38141;42.666;23.344;2023-02-28T09:26:04;95220.56;;;11.67;100.00
3178;BME280;38141;42.666;23.344;2023-02-28T09:28:31;95250.69;;;12.10;100.00
3178;BME280;38141;42.666;23.344;2023-02-28T09:30:58;95244.66;;;12.37;100.00
3178;BME280;38141;42.666;23.344;2023-02-28T09:33:26;95265.72;;;12.62;100.00
3178;BME280;38141;42.666;23.344;2023-02-28T09:35:58;95221.00;;;12.31;100.00
3178;BME280;38141;42.666;23.344;2023-02-28T09:38:25;95273.59;;;12.16;100.00
3178;BME280;38141;42.666;23.344;2023-02-28T09:40:56;95301.63;;;11.83;100.00
3178;BME280;38141;42.666;23.344;2023-02-28T09:43:26;95198.56;;;11.28;100.00
3178;BME280;38141;42.666;23.344;2023-02-28T09:46:00;95248.31;;;11.13;100.00
3178;BME280;38141;42.666;23.344;2023-02-28T09:48:34;95267.94;;;11.84;100.00
3178;BME280;38141;42.666;23.344;2023-02-28T09:51:20;95250.97;;;11.94;100.00
3178;BME280;38141;42.666;23.344;2023-02-28T09:53:50;95270.22;;;12.33;100.00
3178;BME280;38141;42.666;23.344;2023-02-28T09:56:20;95272.03;;;12.15;100.00
3178;BME280;38141;42.666;23.344;2023-02-28T09:59:00;95191.22;;;11.76;100.00
3178;BME280;38141;42.666;23.344;2023-02-28T10:01:35;95203.69;;;11.40;100.00
3178;BME280;38141;42.666;23.344;2023-02-28T10:04:11;95265.41;;;12.09;100.00
3178;BME280;38141;42.666;23.344;2023-02-28T10:06:44;95246.38;;;11.98;100.00
3178;BME280;38141;42.666;23.344;2023-02-28T10:09:15;95238.50;;;11.82;100.00
3178;BME280;38141;42.666;23.344;2023-02-28T10:11:46;95237.31;;;12.45;100.00
3178;BME280;38141;42.666;23.344;2023-02-28T10:14:18;95202.97;;;11.98;100.00
3178;BME280;38141;42.666;23.344;2023-02-28T10:16:47;95218.03;;;11.92;100.00
3178;BME280;38141;42.666;23.344;2023-02-28T10:19:22;95231.69;;;11.58;100.00
3178;BME280;38141;42.666;23.344;2023-02-28T10:21:55;95244.91;;;12.11;100.00
3178;BME280;38141;42.666;23.344;2023-02-28T10:24:30;95230.91;;;12.09;100.00
3178;BME280;38141;42.666;23.344;2023-02-28T10:27:01;95245.59;;;11.97;100.00
3178;BME280;38141;42.666;23.344;2023-02-28T10:29:32;95224.56;;;11.84;100.00
3178;BME280;38141;42.666;23.344;2023-02-28T10:32:01;95238.28;;;12.09;100.00
3178;BME280;38141;42.666;23.344;2023-02-28T10:34:30;95227.59;;;12.37;100.00
3178;BME280;38141;42.666;23.344;2023-02-28T10:36:59;95221.56;;;12.79;100.00
3178;BME280;38141;42.666;23.344;2023-02-28T10:39:40;95226.28;;;12.96;100.00
3178;BME280;38141;42.666;23.344;2023-02-28T10:42:20;95215.38;;;12.82;100.00
3178;BME280;38141;42.666;23.344;2023-02-28T10:45:05;95206.97;;;13.36;100.00
3178;BME280;38141;42.666;23.344;2023-02-28T10:47:33;95217.84;;;13.75;100.00
3178;BME280;38141;42.666;23.344;2023-02-28T10:57:08;95211.16;;;14.30;100.00
3178;BME280;38141;42.666;23.344;2023-02-28T10:59:35;95160.88;;;14.66;99.50
3178;BME280;38141;42.666;23.344;2023-02-28T11:02:29;95202.09;;;14.75;96.66
3178;BME280;38141;42.666;23.344;2023-02-28T11:04:56;95204.16;;;14.43;98.30
3178;BME280;38141;42.666;23.344;2023-02-28T11:07:25;95201.50;;;15.12;91.16
3178;BME280;38141;42.666;23.344;2023-02-28T11:09:54;95191.69;;;14.31;95.47
3178;BME280;38141;42.666;23.344;2023-02-28T11:12:26;95133.00;;;14.37;91.75
3178;BME280;38141;42.666;23.344;2023-02-28T11:14:56;95190.16;;;15.72;82.71
3178;BME280;38141;42.666;23.344;2023-02-28T11:17:27;95174.03;;;14.78;84.16
3178;BME280;38141;42.666;23.344;2023-02-28T11:19:56;95189.03;;;14.17;97.36
3178;BME280;38141;42.666;23.344;2023-02-28T11:22:29;95173.06;;;14.37;99.97
3178;BME280;38141;42.666;23.344;2023-02-28T11:25:00;95196.72;;;14.57;96.13
3178;BME280;38141;42.666;23.344;2023-02-28T11:27:48;95180.50;;;14.01;99.93
3178;BME280;38141;42.666;23.344;2023-02-28T11:30:27;95178.94;;;14.14;96.93
3178;BME280;38141;42.666;23.344;2023-02-28T11:32:54;95178.09;;;14.49;92.97
3178;BME280;38141;42.666;23.344;2023-02-28T11:35:25;95149.00;;;14.10;95.59
3178;BME280;38141;42.666;23.344;2023-02-28T11:37:53;95180.09;;;14.13;97.57
3178;BME280;38141;42.666;23.344;2023-02-28T11:40:26;95176.25;;;13.82;96.25
3178;BME280;38141;42.666;23.344;2023-02-28T11:43:06;95148.63;;;14.08;95.85
3178;BME280;38141;42.666;23.344;2023-02-28T11:45:43;95179.31;;;14.16;100.00
3178;BME280;38141;42.666;23.344;2023-02-28T11:48:18;95151.00;;;13.81;100.00
3178;BME280;38141;42.666;23.344;2023-02-28T11:56:31;95147.13;;;13.90;100.00
3178;BME280;38141;42.666;23.344;2023-02-28T11:59:34;95173.56;;;13.89;100.00
3178;BME280;38141;42.666;23.344;2023-02-28T12:02:22;95160.31;;;13.95;100.00
3178;BME280;38141;42.666;23.344;2023-02-28T12:04:59;95170.72;;;14.28;97.80
3178;BME280;38141;42.666;23.344;2023-02-28T12:07:33;95161.38;;;14.33;97.02
3178;BME280;38141;42.666;23.344;2023-02-28T12:10:09;95138.28;;;14.73;92.14
3178;BME280;38141;42.666;23.344;2023-02-28T12:12:48;95179.56;;;14.60;91.38
3178;BME280;38141;42.666;23.344;2023-02-28T12:15:30;95144.00;;;14.02;95.46
3178;BME280;38141;42.666;23.344;2023-02-28T12:18:12;95167.75;;;13.55;99.29
3178;BME280;38141;42.666;23.344;2023-02-28T12:20:49;95146.38;;;13.68;99.66
3178;BME280;38141;42.666;23.344;2023-02-28T12:23:45;95135.13;;;13.41;99.87
3178;BME280;38141;42.666;23.344;2023-02-28T12:26:19;95156.50;;;13.32;100.00
3178;BME280;38141;42.666;23.344;2023-02-28T12:28:52;95161.16;;;13.39;100.00
3178;BME280;38141;42.666;23.344;2023-02-28T12:31:24;95151.84;;;13.36;100.00
3178;BME280;38141;42.666;23.344;2023-02-28T12:34:00;95163.06;;;13.73;100.00
3178;BME280;38141;42.666;23.344;2023-02-28T12:36:29;95154.09;;;12.95;100.00
3178;BME280;38141;42.666;23.344;2023-02-28T12:39:00;95159.56;;;13.09;100.00
3178;BME280;38141;42.666;23.344;2023-02-28T12:41:34;95108.72;;;13.06;100.00
3178;BME280;38141;42.666;23.344;2023-02-28T12:44:06;95151.41;;;12.99;100.00
3178;BME280;38141;42.666;23.344;2023-02-28T12:46:41;95125.81;;;13.07;100.00
3178;BME280;38141;42.666;23.344;2023-02-28T12:49:10;95156.81;;;12.84;100.00
3178;BME280;38141;42.666;23.344;2023-02-28T12:51:39;95117.63;;;12.71;100.00
3178;BME280;38141;42.666;23.344;2023-02-28T12:54:13;95135.47;;;13.04;100.00
3178;BME280;38141;42.666;23.344;2023-02-28T12:56:47;95150.19;;;12.71;100.00
3178;BME280;38141;42.666;23.344;2023-02-28T12:59:21;95147.09;;;12.87;100.00
3178;BME280;38141;42.666;23.344;2023-02-28T13:02:06;95137.03;;;13.05;100.00
3178;BME280;38141;42.666;23.344;2023-02-28T13:04:52;95144.75;;;12.82;100.00
3178;BME280;38141;42.666;23.344;2023-02-28T13:10:38;95145.19;;;12.87;100.00
3178;BME280;38141;42.666;23.344;2023-02-28T13:13:06;95159.88;;;12.69;100.00
3178;BME280;38141;42.666;23.344;2023-02-28T13:15:33;95143.69;;;13.15;100.00
3178;BME280;38141;42.666;23.344;2023-02-28T13:18:27;95144.84;;;13.24;100.00
3178;BME280;38141;42.666;23.344;2023-02-28T13:20:55;95143.97;;;12.71;100.00
3178;BME280;38141;42.666;23.344;2023-02-28T13:23:41;95140.09;;;12.65;100.00
3178;BME280;38141;42.666;23.344;2023-02-28T13:27:10;95100.25;;;11.86;100.00
3178;BME280;38141;42.666;23.344;2023-02-28T13:29:38;95130.66;;;12.23;100.00
3178;BME280;38141;42.666;23.344;2023-02-28T13:35:37;95138.91;;;12.59;100.00
3178;BME280;38141;42.666;23.344;2023-02-28T13:44:21;95129.91;;;12.37;100.00
3178;BME280;38141;42.666;23.344;2023-02-28T13:47:18;95126.81;;;12.35;100.00
3178;BME280;38141;42.666;23.344;2023-02-28T13:49:45;95126.47;;;12.40;100.00